sensor_id;sensor_type;location;lat;lon;timestamp;temperature;humidity
69328;DHT22;56472;52.114;5.492;2023-02-14T00:00:49;7.10;69.70
69328;DHT22;56472;52.114;5.492;2023-02-14T00:03:15;7.00;69.60
69328;DHT22;56472;52.114;5.492;2023-02-14T00:05:42;7.00;69.60
69328;DHT22;56472;52.114;5.492;2023-02-14T00:08:09;7.00;69.70
69328;DHT22;56472;52.114;5.492;2023-02-14T00:10:36;7.00;69.90
69328;DHT22;56472;52.114;5.492;2023-02-14T00:13:04;7.00;70.00
69328;DHT22;56472;52.114;5.492;2023-02-14T00:15:30;6.90;70.10
69328;DHT22;56472;52.114;5.492;2023-02-14T00:17:57;6.90;70.30
69328;DHT22;56472;52.114;5.492;2023-02-14T00:20:28;6.80;70.30
69328;DHT22;56472;52.114;5.492;2023-02-14T00:22:55;6.80;70.30
69328;DHT22;56472;52.114;5.492;2023-02-14T00:25:22;6.80;70.30
69328;DHT22;56472;52.114;5.492;2023-02-14T00:27:49;6.80;70.30
69328;DHT22;56472;52.114;5.492;2023-02-14T00:30:16;6.70;70.40
69328;DHT22;56472;52.114;5.492;2023-02-14T00:32:43;6.70;70.50
69328;DHT22;56472;52.114;5.492;2023-02-14T00:35:10;6.70;70.50
69328;DHT22;56472;52.114;5.492;2023-02-14T00:37:39;6.60;70.40
69328;DHT22;56472;52.114;5.492;2023-02-14T00:40:07;6.60;70.40
69328;DHT22;56472;52.114;5.492;2023-02-14T00:42:34;6.60;70.30
69328;DHT22;56472;52.114;5.492;2023-02-14T00:45:01;6.50;70.20
69328;DHT22;56472;52.114;5.492;2023-02-14T00:47:28;6.50;70.20
69328;DHT22;56472;52.114;5.492;2023-02-14T00:49:54;6.50;70.20
69328;DHT22;56472;52.114;5.492;2023-02-14T00:52:24;6.50;70.20
69328;DHT22;56472;52.114;5.492;2023-02-14T00:54:51;6.50;70.30
69328;DHT22;56472;52.114;5.492;2023-02-14T00:57:17;6.40;70.60
69328;DHT22;56472;52.114;5.492;2023-02-14T00:59:44;6.40;70.20
69328;DHT22;56472;52.114;5.492;2023-02-14T01:02:11;6.40;70.30
69328;DHT22;56472;52.114;5.492;2023-02-14T01:04:38;6.40;70.40
69328;DHT22;56472;52.114;5.492;2023-02-14T01:07:05;6.30;70.30
69328;DHT22;56472;52.114;5.492;2023-02-14T01:09:33;6.30;70.40
69328;DHT22;56472;52.114;5.492;2023-02-14T01:12:01;6.30;70.40
69328;DHT22;56472;52.114;5.492;2023-02-14T01:14:28;6.30;70.60
69328;DHT22;56472;52.114;5.492;2023-02-14T01:16:55;6.20;70.60
69328;DHT22;56472;52.114;5.492;2023-02-14T01:19:24;6.20;70.60
69328;DHT22;56472;52.114;5.492;2023-02-14T01:21:51;6.10;70.60
69328;DHT22;56472;52.114;5.492;2023-02-14T01:24:21;6.10;70.60
69328;DHT22;56472;52.114;5.492;2023-02-14T01:26:48;6.10;70.70
69328;DHT22;56472;52.114;5.492;2023-02-14T01:29:15;6.10;70.80
69328;DHT22;56472;52.114;5.492;2023-02-14T01:31:42;6.10;70.80
69328;DHT22;56472;52.114;5.492;2023-02-14T01:34:10;6.00;70.80
69328;DHT22;56472;52.114;5.492;2023-02-14T01:36:38;6.00;70.70
69328;DHT22;56472;52.114;5.492;2023-02-14T01:39:07;6.00;70.70
69328;DHT22;56472;52.114;5.492;2023-02-14T01:41:36;6.00;70.70
69328;DHT22;56472;52.114;5.492;2023-02-14T01:46:45;6.00;70.90
69328;DHT22;56472;52.114;5.492;2023-02-14T01:49:19;5.90;71.00
69328;DHT22;56472;52.114;5.492;2023-02-14T01:52:15;5.90;71.20
69328;DHT22;56472;52.114;5.492;2023-02-14T01:55:11;5.90;71.20
69328;DHT22;56472;52.114;5.492;2023-02-14T01:57:52;5.90;71.30
69328;DHT22;56472;52.114;5.492;2023-02-14T02:00:21;5.90;71.40
69328;DHT22;56472;52.114;5.492;2023-02-14T02:03:08;5.90;71.50
69328;DHT22;56472;52.114;5.492;2023-02-14T02:05:43;5.90;71.50
69328;DHT22;56472;52.114;5.492;2023-02-14T02:08:13;5.90;71.50
69328;DHT22;56472;52.114;5.492;2023-02-14T02:10:40;5.90;71.50
69328;DHT22;56472;52.114;5.492;2023-02-14T02:13:15;5.90;71.40
69328;DHT22;56472;52.114;5.492;2023-02-14T02:27:13;5.80;71.40
69328;DHT22;56472;52.114;5.492;2023-02-14T02:47:31;5.60;71.80
69328;DHT22;56472;52.114;5.492;2023-02-14T02:50:09;5.60;71.80
69328;DHT22;56472;52.114;5.492;2023-02-14T03:04:28;5.50;72.00
69328;DHT22;56472;52.114;5.492;2023-02-14T03:24:46;5.40;72.40
69328;DHT22;56472;52.114;5.492;2023-02-14T03:27:31;5.30;72.30
69328;DHT22;56472;52.114;5.492;2023-02-14T03:33:02;5.40;72.40
69328;DHT22;56472;52.114;5.492;2023-02-14T03:38:10;5.30;73.00
69328;DHT22;56472;52.114;5.492;2023-02-14T03:40:51;5.30;72.10
69328;DHT22;56472;52.114;5.492;2023-02-14T03:43:29;5.30;72.20
69328;DHT22;56472;52.114;5.492;2023-02-14T03:48:34;5.20;72.20
69328;DHT22;56472;52.114;5.492;2023-02-14T03:51:02;5.20;72.30
69328;DHT22;56472;52.114;5.492;2023-02-14T03:53:33;5.20;72.20
69328;DHT22;56472;52.114;5.492;2023-02-14T03:58:58;5.20;72.30
69328;DHT22;56472;52.114;5.492;2023-02-14T04:01:33;5.10;72.20
69328;DHT22;56472;52.114;5.492;2023-02-14T04:04:04;5.10;72.20
69328;DHT22;56472;52.114;5.492;2023-02-14T04:06:32;5.10;72.30
69328;DHT22;56472;52.114;5.492;2023-02-14T04:08:59;5.10;72.30
69328;DHT22;56472;52.114;5.492;2023-02-14T04:11:26;5.10;72.30
69328;DHT22;56472;52.114;5.492;2023-02-14T04:13:53;5.00;72.20
69328;DHT22;56472;52.114;5.492;2023-02-14T04:16:20;5.00;72.20
69328;DHT22;56472;52.114;5.492;2023-02-14T04:18:47;5.00;72.20
69328;DHT22;56472;52.114;5.492;2023-02-14T04:21:32;5.00;72.20
69328;DHT22;56472;52.114;5.492;2023-02-14T04:23:59;5.00;72.10
69328;DHT22;56472;52.114;5.492;2023-02-14T04:26:26;5.00;72.20
69328;DHT22;56472;52.114;5.492;2023-02-14T04:28:53;5.00;72.20
69328;DHT22;56472;52.114;5.492;2023-02-14T04:31:20;5.00;72.10
69328;DHT22;56472;52.114;5.492;2023-02-14T04:33:47;5.00;72.10
69328;DHT22;56472;52.114;5.492;2023-02-14T04:36:16;4.90;72.10
69328;DHT22;56472;52.114;5.492;2023-02-14T04:38:43;4.90;72.10
69328;DHT22;56472;52.114;5.492;2023-02-14T04:41:10;4.90;72.10
69328;DHT22;56472;52.114;5.492;2023-02-14T04:43:37;4.90;72.00
69328;DHT22;56472;52.114;5.492;2023-02-14T04:46:04;4.90;72.00
69328;DHT22;56472;52.114;5.492;2023-02-14T04:48:31;4.80;72.00
69328;DHT22;56472;52.114;5.492;2023-02-14T04:50:58;4.80;72.00
69328;DHT22;56472;52.114;5.492;2023-02-14T04:53:25;4.80;72.00
69328;DHT22;56472;52.114;5.492;2023-02-14T04:55:52;4.80;72.00
69328;DHT22;56472;52.114;5.492;2023-02-14T04:58:19;4.80;72.00
69328;DHT22;56472;52.114;5.492;2023-02-14T05:00:45;4.80;72.10
69328;DHT22;56472;52.114;5.492;2023-02-14T05:03:12;4.80;72.00
69328;DHT22;56472;52.114;5.492;2023-02-14T05:05:39;4.70;71.90
69328;DHT22;56472;52.114;5.492;2023-02-14T05:08:06;4.70;71.90
69328;DHT22;56472;52.114;5.492;2023-02-14T05:10:33;4.70;71.90
69328;DHT22;56472;52.114;5.492;2023-02-14T05:13:00;4.70;71.90
69328;DHT22;56472;52.114;5.492;2023-02-14T05:15:27;4.70;72.00
69328;DHT22;56472;52.114;5.492;2023-02-14T05:17:54;4.70;72.00
69328;DHT22;56472;52.114;5.492;2023-02-14T05:20:21;4.70;72.00
69328;DHT22;56472;52.114;5.492;2023-02-14T05:22:48;4.70;72.00
69328;DHT22;56472;52.114;5.492;2023-02-14T05:25:15;4.70;72.10
69328;DHT22;56472;52.114;5.492;2023-02-14T05:27:42;4.70;72.00
69328;DHT22;56472;52.114;5.492;2023-02-14T05:30:09;4.60;72.10
69328;DHT22;56472;52.114;5.492;2023-02-14T05:32:36;4.60;72.10
69328;DHT22;56472;52.114;5.492;2023-02-14T05:35:03;4.70;72.10
69328;DHT22;56472;52.114;5.492;2023-02-14T05:37:30;4.60;73.00
69328;DHT22;56472;52.114;5.492;2023-02-14T05:39:57;4.60;72.10
69328;DHT22;56472;52.114;5.492;2023-02-14T05:42:24;4.60;72.10
69328;DHT22;56472;52.114;5.492;2023-02-14T05:44:51;4.60;72.10
69328;DHT22;56472;52.114;5.492;2023-02-14T05:47:18;4.60;72.10
69328;DHT22;56472;52.114;5.492;2023-02-14T05:49:45;4.60;72.10
69328;DHT22;56472;52.114;5.492;2023-02-14T05:52:12;4.70;72.10
69328;DHT22;56472;52.114;5.492;2023-02-14T05:54:38;4.60;72.20
69328;DHT22;56472;52.114;5.492;2023-02-14T05:57:05;4.60;72.30
69328;DHT22;56472;52.114;5.492;2023-02-14T05:59:32;4.60;72.40
69328;DHT22;56472;52.114;5.492;2023-02-14T06:01:59;4.60;72.50
69328;DHT22;56472;52.114;5.492;2023-02-14T06:04:26;4.60;72.50
69328;DHT22;56472;52.114;5.492;2023-02-14T06:06:53;4.60;72.30
69328;DHT22;56472;52.114;5.492;2023-02-14T06:09:20;4.70;72.40
69328;DHT22;56472;52.114;5.492;2023-02-14T06:11:47;4.60;72.20
69328;DHT22;56472;52.114;5.492;2023-02-14T06:14:14;4.60;72.20
69328;DHT22;56472;52.114;5.492;2023-02-14T06:16:41;4.60;72.20
69328;DHT22;56472;52.114;5.492;2023-02-14T06:19:08;4.60;72.10
69328;DHT22;56472;52.114;5.492;2023-02-14T06:21:35;4.60;72.20
69328;DHT22;56472;52.114;5.492;2023-02-14T06:24:02;4.60;72.20
69328;DHT22;56472;52.114;5.492;2023-02-14T06:26:29;4.60;72.30
69328;DHT22;56472;52.114;5.492;2023-02-14T06:28:57;4.60;72.50
69328;DHT22;56472;52.114;5.492;2023-02-14T06:31:25;4.60;72.70
69328;DHT22;56472;52.114;5.492;2023-02-14T06:33:52;4.60;72.90
69328;DHT22;56472;52.114;5.492;2023-02-14T06:36:20;4.60;72.90
69328;DHT22;56472;52.114;5.492;2023-02-14T06:38:47;4.60;72.70
69328;DHT22;56472;52.114;5.492;2023-02-14T06:41:15;4.60;72.50
69328;DHT22;56472;52.114;5.492;2023-02-14T06:43:43;4.50;72.50
69328;DHT22;56472;52.114;5.492;2023-02-14T06:46:10;4.50;72.40
69328;DHT22;56472;52.114;5.492;2023-02-14T06:48:37;4.50;72.40
69328;DHT22;56472;52.114;5.492;2023-02-14T06:51:04;4.50;72.30
69328;DHT22;56472;52.114;5.492;2023-02-14T06:53:31;4.50;72.20
69328;DHT22;56472;52.114;5.492;2023-02-14T06:55:58;4.40;72.20
69328;DHT22;56472;52.114;5.492;2023-02-14T06:58:25;4.40;72.40
69328;DHT22;56472;52.114;5.492;2023-02-14T07:00:56;4.40;72.50
69328;DHT22;56472;52.114;5.492;2023-02-14T07:03:25;4.40;72.60
69328;DHT22;56472;52.114;5.492;2023-02-14T07:05:52;4.40;72.70
69328;DHT22;56472;52.114;5.492;2023-02-14T07:08:19;4.30;72.70
69328;DHT22;56472;52.114;5.492;2023-02-14T07:10:46;4.30;72.80
69328;DHT22;56472;52.114;5.492;2023-02-14T07:13:13;4.30;72.80
69328;DHT22;56472;52.114;5.492;2023-02-14T07:15:40;4.30;72.90
69328;DHT22;56472;52.114;5.492;2023-02-14T07:18:06;4.30;72.90
69328;DHT22;56472;52.114;5.492;2023-02-14T07:20:37;4.30;73.00
69328;DHT22;56472;52.114;5.492;2023-02-14T07:23:04;4.30;73.10
69328;DHT22;56472;52.114;5.492;2023-02-14T07:25:31;4.30;73.20
69328;DHT22;56472;52.114;5.492;2023-02-14T07:27:58;4.30;73.40
69328;DHT22;56472;52.114;5.492;2023-02-14T07:30:24;4.40;73.50
69328;DHT22;56472;52.114;5.492;2023-02-14T07:32:51;4.40;73.60
69328;DHT22;56472;52.114;5.492;2023-02-14T07:35:18;4.40;73.70
69328;DHT22;56472;52.114;5.492;2023-02-14T07:37:47;4.40;73.90
69328;DHT22;56472;52.114;5.492;2023-02-14T07:40:15;4.50;74.20
69328;DHT22;56472;52.114;5.492;2023-02-14T07:42:42;4.50;74.40
69328;DHT22;56472;52.114;5.492;2023-02-14T07:45:09;4.50;74.70
69328;DHT22;56472;52.114;5.492;2023-02-14T07:47:52;4.60;75.00
69328;DHT22;56472;52.114;5.492;2023-02-14T07:50:20;4.60;75.30
69328;DHT22;56472;52.114;5.492;2023-02-14T07:52:48;4.70;75.60
69328;DHT22;56472;52.114;5.492;2023-02-14T07:55:15;4.80;75.90
69328;DHT22;56472;52.114;5.492;2023-02-14T07:57:42;4.80;76.10
69328;DHT22;56472;52.114;5.492;2023-02-14T08:00:09;4.90;76.30
69328;DHT22;56472;52.114;5.492;2023-02-14T08:02:39;5.00;76.50
69328;DHT22;56472;52.114;5.492;2023-02-14T08:05:07;5.00;76.70
69328;DHT22;56472;52.114;5.492;2023-02-14T08:07:34;5.10;76.80
69328;DHT22;56472;52.114;5.492;2023-02-14T08:10:01;5.20;76.90
69328;DHT22;56472;52.114;5.492;2023-02-14T08:12:28;5.20;77.00
69328;DHT22;56472;52.114;5.492;2023-02-14T08:15:13;5.30;77.10
69328;DHT22;56472;52.114;5.492;2023-02-14T08:17:58;5.40;77.20
69328;DHT22;56472;52.114;5.492;2023-02-14T08:20:25;5.50;77.40
69328;DHT22;56472;52.114;5.492;2023-02-14T08:22:52;5.50;77.50
69328;DHT22;56472;52.114;5.492;2023-02-14T08:25:19;5.60;77.70
69328;DHT22;56472;52.114;5.492;2023-02-14T08:27:46;5.60;78.60
69328;DHT22;56472;52.114;5.492;2023-02-14T08:30:14;5.70;78.00
69328;DHT22;56472;52.114;5.492;2023-02-14T08:32:41;5.80;78.10
69328;DHT22;56472;52.114;5.492;2023-02-14T08:35:08;5.90;78.40
69328;DHT22;56472;52.114;5.492;2023-02-14T08:37:35;6.00;78.60
69328;DHT22;56472;52.114;5.492;2023-02-14T08:40:02;6.00;78.70
69328;DHT22;56472;52.114;5.492;2023-02-14T08:42:29;6.10;78.70
69328;DHT22;56472;52.114;5.492;2023-02-14T08:44:55;6.20;78.90
69328;DHT22;56472;52.114;5.492;2023-02-14T08:47:22;6.30;79.00
69328;DHT22;56472;52.114;5.492;2023-02-14T08:49:49;6.30;79.10
69328;DHT22;56472;52.114;5.492;2023-02-14T08:52:16;6.40;79.30
69328;DHT22;56472;52.114;5.492;2023-02-14T08:54:43;6.50;79.40
69328;DHT22;56472;52.114;5.492;2023-02-14T08:57:10;6.50;79.40
69328;DHT22;56472;52.114;5.492;2023-02-14T08:59:37;6.60;79.50
69328;DHT22;56472;52.114;5.492;2023-02-14T09:02:04;6.60;80.40
69328;DHT22;56472;52.114;5.492;2023-02-14T09:04:33;6.70;79.60
69328;DHT22;56472;52.114;5.492;2023-02-14T09:07:00;6.80;79.80
69328;DHT22;56472;52.114;5.492;2023-02-14T09:09:31;6.90;80.10
69328;DHT22;56472;52.114;5.492;2023-02-14T09:12:03;6.90;80.10
69328;DHT22;56472;52.114;5.492;2023-02-14T09:14:36;7.00;80.20
69328;DHT22;56472;52.114;5.492;2023-02-14T09:17:04;7.10;80.30
69328;DHT22;56472;52.114;5.492;2023-02-14T09:19:33;7.10;80.50
69328;DHT22;56472;52.114;5.492;2023-02-14T09:22:00;7.20;80.70
69328;DHT22;56472;52.114;5.492;2023-02-14T09:24:30;7.30;80.90
69328;DHT22;56472;52.114;5.492;2023-02-14T09:26:58;7.40;81.20
69328;DHT22;56472;52.114;5.492;2023-02-14T09:29:26;7.40;81.30
69328;DHT22;56472;52.114;5.492;2023-02-14T09:31:55;7.50;81.70
69328;DHT22;56472;52.114;5.492;2023-02-14T09:34:22;7.60;81.80
69328;DHT22;56472;52.114;5.492;2023-02-14T09:36:49;7.70;81.90
69328;DHT22;56472;52.114;5.492;2023-02-14T09:39:16;7.80;82.10
69328;DHT22;56472;52.114;5.492;2023-02-14T09:44:38;8.00;82.40
69328;DHT22;56472;52.114;5.492;2023-02-14T09:49:48;8.20;82.50
69328;DHT22;56472;52.114;5.492;2023-02-14T09:52:17;8.30;82.70
69328;DHT22;56472;52.114;5.492;2023-02-14T09:54:50;8.30;82.80
69328;DHT22;56472;52.114;5.492;2023-02-14T09:57:24;8.50;83.00
69328;DHT22;56472;52.114;5.492;2023-02-14T10:00:04;8.60;83.20
69328;DHT22;56472;52.114;5.492;2023-02-14T10:02:38;8.70;83.20
69328;DHT22;56472;52.114;5.492;2023-02-14T10:05:10;8.70;83.10
69328;DHT22;56472;52.114;5.492;2023-02-14T10:10:41;9.00;83.10
69328;DHT22;56472;52.114;5.492;2023-02-14T10:16:15;9.10;83.10
69328;DHT22;56472;52.114;5.492;2023-02-14T10:18:48;9.20;83.00
69328;DHT22;56472;52.114;5.492;2023-02-14T10:21:43;9.30;83.00
69328;DHT22;56472;52.114;5.492;2023-02-14T10:24:18;9.40;82.90
69328;DHT22;56472;52.114;5.492;2023-02-14T10:26:48;9.50;82.90
69328;DHT22;56472;52.114;5.492;2023-02-14T10:29:17;9.60;83.00
69328;DHT22;56472;52.114;5.492;2023-02-14T10:34:39;9.80;82.80
69328;DHT22;56472;52.114;5.492;2023-02-14T10:37:47;9.90;82.70
69328;DHT22;56472;52.114;5.492;2023-02-14T10:45:38;10.20;82.30
69328;DHT22;56472;52.114;5.492;2023-02-14T10:51:20;10.30;82.20
69328;DHT22;56472;52.114;5.492;2023-02-14T10:54:08;10.50;82.20
69328;DHT22;56472;52.114;5.492;2023-02-14T10:59:28;10.70;81.70
69328;DHT22;56472;52.114;5.492;2023-02-14T11:01:58;10.80;81.50
69328;DHT22;56472;52.114;5.492;2023-02-14T11:04:27;10.90;81.20
69328;DHT22;56472;52.114;5.492;2023-02-14T11:06:56;11.00;80.90
69328;DHT22;56472;52.114;5.492;2023-02-14T11:09:23;11.10;80.80
69328;DHT22;56472;52.114;5.492;2023-02-14T11:11:52;11.20;80.60
69328;DHT22;56472;52.114;5.492;2023-02-14T11:14:31;11.30;80.40
69328;DHT22;56472;52.114;5.492;2023-02-14T11:16:59;11.40;80.00
69328;DHT22;56472;52.114;5.492;2023-02-14T11:19:27;11.60;79.60
69328;DHT22;56472;52.114;5.492;2023-02-14T11:21:56;11.60;79.40
69328;DHT22;56472;52.114;5.492;2023-02-14T11:24:35;11.70;79.00
69328;DHT22;56472;52.114;5.492;2023-02-14T11:27:03;11.80;78.40
69328;DHT22;56472;52.114;5.492;2023-02-14T11:29:44;11.90;77.90
69328;DHT22;56472;52.114;5.492;2023-02-14T11:32:25;12.00;77.50
69328;DHT22;56472;52.114;5.492;2023-02-14T11:35:05;12.10;77.00
69328;DHT22;56472;52.114;5.492;2023-02-14T11:37:41;12.20;76.60
69328;DHT22;56472;52.114;5.492;2023-02-14T11:40:35;12.30;76.40
69328;DHT22;56472;52.114;5.492;2023-02-14T11:45:42;12.60;75.40
69328;DHT22;56472;52.114;5.492;2023-02-14T11:48:22;12.60;75.20
69328;DHT22;56472;52.114;5.492;2023-02-14T11:51:11;12.70;74.70
69328;DHT22;56472;52.114;5.492;2023-02-14T11:53:46;12.80;74.30
69328;DHT22;56472;52.114;5.492;2023-02-14T11:56:14;12.90;73.80
69328;DHT22;56472;52.114;5.492;2023-02-14T11:58:51;13.00;73.10
69328;DHT22;56472;52.114;5.492;2023-02-14T12:01:25;13.10;72.40
69328;DHT22;56472;52.114;5.492;2023-02-14T12:03:56;13.20;72.40
69328;DHT22;56472;52.114;5.492;2023-02-14T12:06:26;13.30;72.10
69328;DHT22;56472;52.114;5.492;2023-02-14T12:12:23;13.50;71.70
69328;DHT22;56472;52.114;5.492;2023-02-14T12:14:49;13.70;71.20
69328;DHT22;56472;52.114;5.492;2023-02-14T12:17:33;13.70;70.00
69328;DHT22;56472;52.114;5.492;2023-02-14T12:25:43;14.00;70.10
69328;DHT22;56472;52.114;5.492;2023-02-14T12:28:29;14.10;70.80
69328;DHT22;56472;52.114;5.492;2023-02-14T12:30:57;14.20;68.50
69328;DHT22;56472;52.114;5.492;2023-02-14T12:33:25;14.30;68.60
69328;DHT22;56472;52.114;5.492;2023-02-14T12:36:08;14.40;68.00
69328;DHT22;56472;52.114;5.492;2023-02-14T12:42:06;14.60;68.30
69328;DHT22;56472;52.114;5.492;2023-02-14T12:47:42;14.80;68.00
69328;DHT22;56472;52.114;5.492;2023-02-14T12:56:08;15.40;68.00
69328;DHT22;56472;52.114;5.492;2023-02-14T12:59:10;15.90;67.70
69328;DHT22;56472;52.114;5.492;2023-02-14T13:12:53;19.80;59.20
69328;DHT22;56472;52.114;5.492;2023-02-14T13:15:31;20.50;58.10
69328;DHT22;56472;52.114;5.492;2023-02-14T13:21:08;21.60;53.40
69328;DHT22;56472;52.114;5.492;2023-02-14T13:23:48;22.20;52.70
69328;DHT22;56472;52.114;5.492;2023-02-14T13:26:21;22.60;51.80
69328;DHT22;56472;52.114;5.492;2023-02-14T13:29:01;23.10;49.60
69328;DHT22;56472;52.114;5.492;2023-02-14T13:31:29;23.50;48.00
69328;DHT22;56472;52.114;5.492;2023-02-14T13:36:36;24.10;44.30
69328;DHT22;56472;52.114;5.492;2023-02-14T13:39:03;24.30;45.00
69328;DHT22;56472;52.114;5.492;2023-02-14T13:41:31;24.50;42.60
69328;DHT22;56472;52.114;5.492;2023-02-14T13:44:00;24.70;41.10
69328;DHT22;56472;52.114;5.492;2023-02-14T13:49:30;24.90;39.30
69328;DHT22;56472;52.114;5.492;2023-02-14T13:52:00;24.90;38.60
69328;DHT22;56472;52.114;5.492;2023-02-14T13:54:42;25.10;39.10
69328;DHT22;56472;52.114;5.492;2023-02-14T13:57:32;25.20;39.20
69328;DHT22;56472;52.114;5.492;2023-02-14T14:02:54;25.70;38.10
69328;DHT22;56472;52.114;5.492;2023-02-14T14:10:53;26.10;35.80
69328;DHT22;56472;52.114;5.492;2023-02-14T14:21:42;24.70;36.80
69328;DHT22;56472;52.114;5.492;2023-02-14T14:24:19;24.40;37.40
69328;DHT22;56472;52.114;5.492;2023-02-14T14:29:48;24.40;38.50
69328;DHT22;56472;52.114;5.492;2023-02-14T14:32:24;24.70;38.20
69328;DHT22;56472;52.114;5.492;2023-02-14T14:34:53;25.10;37.90
69328;DHT22;56472;52.114;5.492;2023-02-14T14:37:23;25.50;37.70
69328;DHT22;56472;52.114;5.492;2023-02-14T14:40:00;25.70;36.70
69328;DHT22;56472;52.114;5.492;2023-02-14T14:42:29;25.80;36.30
69328;DHT22;56472;52.114;5.492;2023-02-14T14:45:07;25.80;36.20
69328;DHT22;56472;52.114;5.492;2023-02-14T14:47:42;25.70;36.00
69328;DHT22;56472;52.114;5.492;2023-02-14T14:50:21;25.60;36.10
69328;DHT22;56472;52.114;5.492;2023-02-14T14:52:53;25.40;35.80
69328;DHT22;56472;52.114;5.492;2023-02-14T14:55:27;25.00;35.80
69328;DHT22;56472;52.114;5.492;2023-02-14T14:57:57;24.70;36.30
69328;DHT22;56472;52.114;5.492;2023-02-14T15:03:11;23.80;37.10
69328;DHT22;56472;52.114;5.492;2023-02-14T15:05:45;23.30;37.80
69328;DHT22;56472;52.114;5.492;2023-02-14T15:08:33;22.80;38.30
69328;DHT22;56472;52.114;5.492;2023-02-14T15:11:17;22.30;39.50
69328;DHT22;56472;52.114;5.492;2023-02-14T15:14:09;22.00;40.50
69328;DHT22;56472;52.114;5.492;2023-02-14T15:17:02;21.60;41.00
69328;DHT22;56472;52.114;5.492;2023-02-14T15:19:38;21.20;42.10
69328;DHT22;56472;52.114;5.492;2023-02-14T15:24:44;20.60;44.20
69328;DHT22;56472;52.114;5.492;2023-02-14T15:27:17;20.40;45.00
69328;DHT22;56472;52.114;5.492;2023-02-14T15:30:07;20.10;45.70
69328;DHT22;56472;52.114;5.492;2023-02-14T15:32:35;19.90;46.10
69328;DHT22;56472;52.114;5.492;2023-02-14T15:35:05;19.70;47.00
69328;DHT22;56472;52.114;5.492;2023-02-14T15:37:33;19.50;47.60
69328;DHT22;56472;52.114;5.492;2023-02-14T15:40:00;19.30;48.00
69328;DHT22;56472;52.114;5.492;2023-02-14T15:42:30;19.10;48.30
69328;DHT22;56472;52.114;5.492;2023-02-14T15:45:20;19.00;48.70
69328;DHT22;56472;52.114;5.492;2023-02-14T15:48:01;18.90;49.20
69328;DHT22;56472;52.114;5.492;2023-02-14T15:50:31;18.80;49.60
69328;DHT22;56472;52.114;5.492;2023-02-14T15:53:04;18.90;50.40
69328;DHT22;56472;52.114;5.492;2023-02-14T15:55:33;19.00;51.10
69328;DHT22;56472;52.114;5.492;2023-02-14T15:58:24;19.30;50.90
69328;DHT22;56472;52.114;5.492;2023-02-14T16:00:53;19.70;49.90
69328;DHT22;56472;52.114;5.492;2023-02-14T16:03:31;20.00;49.30
69328;DHT22;56472;52.114;5.492;2023-02-14T16:06:03;20.40;48.50
69328;DHT22;56472;52.114;5.492;2023-02-14T16:08:35;20.70;47.70
69328;DHT22;56472;52.114;5.492;2023-02-14T16:11:03;20.90;46.40
69328;DHT22;56472;52.114;5.492;2023-02-14T16:13:42;21.10;45.70
69328;DHT22;56472;52.114;5.492;2023-02-14T16:16:12;21.10;45.10
69328;DHT22;56472;52.114;5.492;2023-02-14T16:18:44;21.20;44.80
69328;DHT22;56472;52.114;5.492;2023-02-14T16:23:41;21.10;44.10
69328;DHT22;56472;52.114;5.492;2023-02-14T16:26:08;21.00;44.30
69328;DHT22;56472;52.114;5.492;2023-02-14T16:28:35;20.80;44.50
69328;DHT22;56472;52.114;5.492;2023-02-14T16:31:04;20.70;44.80
69328;DHT22;56472;52.114;5.492;2023-02-14T16:33:38;20.40;44.90
69328;DHT22;56472;52.114;5.492;2023-02-14T16:38:41;19.90;45.60
69328;DHT22;56472;52.114;5.492;2023-02-14T16:41:18;19.60;46.20
69328;DHT22;56472;52.114;5.492;2023-02-14T16:43:46;19.20;46.60
69328;DHT22;56472;52.114;5.492;2023-02-14T16:46:15;18.90;47.30
69328;DHT22;56472;52.114;5.492;2023-02-14T16:48:43;18.50;48.00
69328;DHT22;56472;52.114;5.492;2023-02-14T16:51:14;18.20;48.70
69328;DHT22;56472;52.114;5.492;2023-02-14T16:53:42;17.90;49.40
69328;DHT22;56472;52.114;5.492;2023-02-14T16:56:16;17.50;50.10
69328;DHT22;56472;52.114;5.492;2023-02-14T16:58:46;17.30;50.50
69328;DHT22;56472;52.114;5.492;2023-02-14T17:01:13;17.00;51.40
69328;DHT22;56472;52.114;5.492;2023-02-14T17:03:40;16.70;52.00
69328;DHT22;56472;52.114;5.492;2023-02-14T17:06:11;16.50;52.80
69328;DHT22;56472;52.114;5.492;2023-02-14T17:08:40;16.30;53.40
69328;DHT22;56472;52.114;5.492;2023-02-14T17:11:08;16.10;54.10
69328;DHT22;56472;52.114;5.492;2023-02-14T17:13:37;15.90;54.80
69328;DHT22;56472;52.114;5.492;2023-02-14T17:16:07;15.60;55.20
69328;DHT22;56472;52.114;5.492;2023-02-14T17:18:38;15.40;55.70
69328;DHT22;56472;52.114;5.492;2023-02-14T17:21:07;15.30;56.30
69328;DHT22;56472;52.114;5.492;2023-02-14T17:23:35;15.10;56.80
69328;DHT22;56472;52.114;5.492;2023-02-14T17:26:02;15.00;57.30
69328;DHT22;56472;52.114;5.492;2023-02-14T17:28:29;14.80;57.70
69328;DHT22;56472;52.114;5.492;2023-02-14T17:30:56;14.70;58.10
69328;DHT22;56472;52.114;5.492;2023-02-14T17:33:26;14.50;58.40
69328;DHT22;56472;52.114;5.492;2023-02-14T17:35:53;14.40;58.70
69328;DHT22;56472;52.114;5.492;2023-02-14T17:38:20;14.30;58.90
69328;DHT22;56472;52.114;5.492;2023-02-14T17:40:47;14.20;59.20
69328;DHT22;56472;52.114;5.492;2023-02-14T17:43:14;14.00;59.50
69328;DHT22;56472;52.114;5.492;2023-02-14T17:45:41;13.90;59.80
69328;DHT22;56472;52.114;5.492;2023-02-14T17:48:08;13.80;60.30
69328;DHT22;56472;52.114;5.492;2023-02-14T17:50:37;13.70;60.10
69328;DHT22;56472;52.114;5.492;2023-02-14T17:53:04;13.60;60.00
69328;DHT22;56472;52.114;5.492;2023-02-14T17:55:31;13.50;60.60
69328;DHT22;56472;52.114;5.492;2023-02-14T17:57:58;13.40;60.90
69328;DHT22;56472;52.114;5.492;2023-02-14T18:00:25;13.20;61.10
69328;DHT22;56472;52.114;5.492;2023-02-14T18:02:52;13.10;61.10
69328;DHT22;56472;52.114;5.492;2023-02-14T18:05:19;13.00;61.30
69328;DHT22;56472;52.114;5.492;2023-02-14T18:07:45;12.90;61.50
69328;DHT22;56472;52.114;5.492;2023-02-14T18:10:13;12.80;61.70
69328;DHT22;56472;52.114;5.492;2023-02-14T18:12:40;12.80;61.90
69328;DHT22;56472;52.114;5.492;2023-02-14T18:15:07;12.70;61.90
69328;DHT22;56472;52.114;5.492;2023-02-14T18:17:34;12.60;62.10
69328;DHT22;56472;52.114;5.492;2023-02-14T18:20:01;12.50;62.40
69328;DHT22;56472;52.114;5.492;2023-02-14T18:22:28;12.40;62.40
69328;DHT22;56472;52.114;5.492;2023-02-14T18:24:56;12.40;62.40
69328;DHT22;56472;52.114;5.492;2023-02-14T18:27:25;12.30;62.70
69328;DHT22;56472;52.114;5.492;2023-02-14T18:29:52;12.20;63.00
69328;DHT22;56472;52.114;5.492;2023-02-14T18:32:19;12.20;63.20
69328;DHT22;56472;52.114;5.492;2023-02-14T18:34:46;12.10;63.40
69328;DHT22;56472;52.114;5.492;2023-02-14T18:37:13;12.00;63.50
69328;DHT22;56472;52.114;5.492;2023-02-14T18:39:40;12.00;63.70
69328;DHT22;56472;52.114;5.492;2023-02-14T18:42:07;11.90;63.70
69328;DHT22;56472;52.114;5.492;2023-02-14T18:44:34;11.90;63.50
69328;DHT22;56472;52.114;5.492;2023-02-14T18:47:01;11.80;63.40
69328;DHT22;56472;52.114;5.492;2023-02-14T18:49:28;11.70;63.60
69328;DHT22;56472;52.114;5.492;2023-02-14T18:51:55;11.60;63.90